Time;durP1;ratioP1;P1;durP2;ratioP2;P2;SDS_P1;SDS_P2;PMS_P1;PMS_P2;Temp;Humidity;BMP_temperature;BMP_pressure;BME280_temperature;BME280_humidity;BME280_pressure;Samples;Min_cycle;Max_cycle;Signal;HPM_P1;HPM_P2
2022/10/07 00:01:53;;;;;;;4.37;1.73;;;10.60;99.90;;;;;;5046488;28;20822;-84
2022/10/07 00:04:20;;;;;;;5.30;1.87;;;10.60;99.90;;;;;;5040688;28;20493;-84
2022/10/07 00:06:47;;;;;;;9.73;2.20;;;10.60;99.90;;;;;;5037177;28;20468;-84
2022/10/07 00:09:14;;;;;;;4.53;2.30;;;10.60;99.90;;;;;;5018607;28;20991;-84
2022/10/07 00:11:41;;;;;;;8.00;2.33;;;10.50;99.90;;;;;;5037485;28;20464;-84
2022/10/07 00:14:08;;;;;;;7.50;2.67;;;10.60;99.90;;;;;;5038107;28;20451;-84
2022/10/07 00:16:37;;;;;;;7.20;2.17;;;10.60;99.90;;;;;;5037080;28;21014;-84
2022/10/07 00:19:08;;;;;;;4.90;1.67;;;10.60;99.90;;;;;;5037613;28;20464;-83
2022/10/07 00:21:37;;;;;;;4.43;2.23;;;10.60;99.90;;;;;;5037700;28;20830;-83
2022/10/07 00:24:04;;;;;;;6.00;2.00;;;10.50;99.90;;;;;;5037544;28;20502;-83
2022/10/07 00:26:32;;;;;;;4.37;2.40;;;10.60;99.90;;;;;;5036640;28;20479;-83
2022/10/07 00:29:00;;;;;;;5.50;1.57;;;10.50;99.90;;;;;;5037700;28;20455;-83
2022/10/07 00:31:29;;;;;;;6.73;2.00;;;10.50;99.90;;;;;;5038366;28;20993;-82
2022/10/07 00:33:57;;;;;;;6.40;2.03;;;10.50;99.90;;;;;;5037216;28;20449;-84
2022/10/07 00:36:26;;;;;;;5.20;1.63;;;10.50;99.90;;;;;;5038968;28;20485;-85
2022/10/07 00:38:56;;;;;;;6.00;2.80;;;10.50;99.90;;;;;;5037764;28;20463;-84
2022/10/07 00:41:24;;;;;;;9.00;2.10;;;10.50;99.90;;;;;;5036423;28;20462;-86
2022/10/07 00:43:51;;;;;;;10.57;2.97;;;10.50;99.90;;;;;;5037629;28;20484;-83
2022/10/07 00:46:28;;;;;;;4.33;1.67;;;10.50;99.90;;;;;;5037984;28;20485;-84
2022/10/07 00:48:56;;;;;;;6.53;2.10;;;10.50;99.90;;;;;;5037298;28;20452;-84
2022/10/07 00:51:22;;;;;;;6.27;1.90;;;10.50;99.90;;;;;;5037565;28;20455;-84
2022/10/07 00:53:54;;;;;;;7.47;2.43;;;10.50;99.90;;;;;;5038749;28;20456;-85
2022/10/07 00:56:23;;;;;;;8.03;2.30;;;10.50;99.90;;;;;;5039773;28;20472;-85
2022/10/07 00:58:51;;;;;;;3.40;1.57;;;10.50;99.90;;;;;;5035503;28;20471;-84
2022/10/07 01:01:18;;;;;;;10.97;2.00;;;10.50;99.90;;;;;;5041249;28;20452;-84
2022/10/07 01:03:47;;;;;;;4.20;1.90;;;10.50;99.90;;;;;;5055908;28;20512;-85
2022/10/07 01:06:14;;;;;;;7.23;2.20;;;10.50;99.90;;;;;;5037077;28;20507;-85
2022/10/07 01:08:43;;;;;;;5.97;2.43;;;10.50;99.90;;;;;;5037123;28;20522;-84
2022/10/07 01:11:23;;;;;;;7.27;1.93;;;10.50;99.90;;;;;;5038456;28;20459;-85
2022/10/07 01:14:00;;;;;;;8.40;2.37;;;10.50;99.90;;;;;;5036765;28;20457;-84
2022/10/07 01:16:34;;;;;;;4.37;1.80;;;10.60;99.90;;;;;;5034746;28;21008;-84
2022/10/07 01:19:10;;;;;;;4.10;1.43;;;10.60;99.90;;;;;;5034123;28;20482;-84
2022/10/07 01:21:43;;;;;;;4.03;1.73;;;10.60;99.90;;;;;;5036567;28;20880;-86
2022/10/07 01:24:24;;;;;;;5.90;2.00;;;10.50;99.90;;;;;;5036493;28;20495;-86
2022/10/07 01:26:59;;;;;;;4.10;1.53;;;10.50;99.90;;;;;;5036595;28;20539;-86
2022/10/07 01:29:30;;;;;;;6.10;1.87;;;10.50;99.90;;;;;;5035989;28;20554;-85
2022/10/07 01:32:05;;;;;;;4.83;2.07;;;10.60;99.90;;;;;;5036589;28;20452;-84
2022/10/07 01:34:34;;;;;;;4.77;1.97;;;10.50;99.90;;;;;;5035750;28;21131;-86
2022/10/07 01:37:04;;;;;;;3.20;1.60;;;10.60;99.90;;;;;;5036772;28;20465;-84
2022/10/07 01:39:37;;;;;;;4.50;1.97;;;10.60;99.90;;;;;;5016168;28;20464;-86
2022/10/07 01:42:06;;;;;;;5.20;1.93;;;10.60;99.90;;;;;;5016884;28;20877;-86
2022/10/07 01:44:33;;;;;;;4.27;2.70;;;10.50;99.90;;;;;;5037519;28;21141;-85
2022/10/07 01:47:00;;;;;;;7.40;2.23;;;10.50;99.90;;;;;;5039198;28;20464;-85
2022/10/07 01:49:28;;;;;;;9.63;3.10;;;10.50;99.90;;;;;;5040719;28;20963;-85
2022/10/07 01:52:12;;;;;;;5.93;1.93;;;10.50;99.90;;;;;;5039451;28;20461;-84
2022/10/07 01:54:53;;;;;;;8.43;2.30;;;10.50;99.90;;;;;;5037822;28;20478;-83
2022/10/07 01:57:34;;;;;;;5.80;2.10;;;10.50;99.90;;;;;;5037001;28;20450;-84
2022/10/07 02:00:09;;;;;;;7.43;2.73;;;10.50;99.90;;;;;;5029136;28;20458;-84
2022/10/07 02:02:50;;;;;;;5.97;2.13;;;10.50;99.90;;;;;;5039672;28;20458;-83
2022/10/07 02:05:31;;;;;;;5.10;2.20;;;10.50;99.90;;;;;;5057238;28;20490;-83
2022/10/07 02:08:11;;;;;;;7.07;2.80;;;10.50;99.90;;;;;;5050395;28;20834;-84
2022/10/07 02:10:53;;;;;;;6.97;2.70;;;10.50;99.90;;;;;;5036405;28;20459;-83
2022/10/07 02:13:33;;;;;;;6.27;2.97;;;10.40;99.90;;;;;;5036438;28;20455;-84
2022/10/07 02:16:06;;;;;;;10.13;3.03;;;10.50;99.90;;;;;;5040114;28;20479;-83
2022/10/07 02:18:35;;;;;;;7.40;2.70;;;10.50;99.90;;;;;;5043900;28;20482;-84
2022/10/07 02:21:06;;;;;;;8.60;3.37;;;10.50;99.90;;;;;;5045011;28;20452;-85
2022/10/07 02:23:35;;;;;;;7.37;2.17;;;10.50;99.90;;;;;;5043701;28;20463;-84
2022/10/07 02:26:03;;;;;;;4.50;2.50;;;10.50;99.90;;;;;;5040378;28;20487;-85
2022/10/07 02:28:34;;;;;;;5.50;2.50;;;10.50;99.90;;;;;;5038866;28;20509;-85
2022/10/07 02:31:03;;;;;;;4.80;2.30;;;10.40;99.90;;;;;;5040100;28;20456;-86
2022/10/07 02:33:32;;;;;;;7.37;2.97;;;10.40;99.90;;;;;;5038814;28;20471;-85
2022/10/07 02:36:02;;;;;;;5.37;2.63;;;10.40;99.90;;;;;;5039093;28;20487;-85
2022/10/07 02:38:29;;;;;;;7.73;2.80;;;10.40;99.90;;;;;;5039936;28;20550;-84
2022/10/07 02:41:04;;;;;;;7.73;2.70;;;10.40;99.90;;;;;;5040218;28;20512;-84
2022/10/07 02:43:40;;;;;;;7.57;2.40;;;10.50;99.90;;;;;;5038597;28;20589;-85
2022/10/07 02:46:12;;;;;;;5.70;3.10;;;10.40;99.90;;;;;;5040292;28;20546;-84
2022/10/07 02:48:44;;;;;;;8.50;2.83;;;10.40;99.90;;;;;;5040424;28;20546;-83
2022/10/07 02:51:17;;;;;;;7.00;2.60;;;10.40;99.90;;;;;;5040148;28;20454;-84
2022/10/07 02:53:48;;;;;;;9.27;2.70;;;10.40;99.90;;;;;;5038065;28;20470;-84
2022/10/07 02:56:16;;;;;;;6.03;2.30;;;10.40;99.90;;;;;;5042097;28;20480;-83
2022/10/07 02:58:46;;;;;;;6.30;2.50;;;10.40;99.90;;;;;;5038231;28;20464;-84
2022/10/07 03:01:17;;;;;;;5.07;2.23;;;10.40;99.90;;;;;;5038504;28;20827;-84
2022/10/07 03:03:44;;;;;;;6.93;2.67;;;10.40;99.90;;;;;;5040564;28;20456;-85
2022/10/07 03:06:12;;;;;;;6.33;2.03;;;10.40;99.90;;;;;;5040993;28;20491;-84
2022/10/07 03:08:40;;;;;;;7.07;2.10;;;10.40;99.90;;;;;;5039603;28;20954;-83
2022/10/07 03:11:06;;;;;;;6.80;2.63;;;10.40;99.90;;;;;;5038330;28;20453;-84
2022/10/07 03:13:34;;;;;;;5.40;2.70;;;10.40;99.90;;;;;;5040472;28;20456;-83
2022/10/07 03:16:04;;;;;;;7.30;3.00;;;10.40;99.90;;;;;;5038625;28;20532;-85
2022/10/07 03:18:30;;;;;;;5.23;2.50;;;10.40;99.90;;;;;;5038510;28;20455;-84
2022/10/07 03:20:59;;;;;;;9.60;3.80;;;10.40;99.90;;;;;;5041498;28;20458;-85
2022/10/07 03:23:27;;;;;;;5.20;2.60;;;10.40;99.90;;;;;;5041782;28;20526;-84
2022/10/07 03:25:57;;;;;;;7.37;2.20;;;10.40;99.90;;;;;;5041071;28;20488;-83
2022/10/07 03:28:26;;;;;;;6.00;2.60;;;10.40;99.90;;;;;;5042704;28;20520;-83
2022/10/07 03:30:53;;;;;;;5.90;2.33;;;10.30;99.90;;;;;;5042099;28;20451;-84
2022/10/07 03:33:25;;;;;;;6.10;2.50;;;10.30;99.90;;;;;;5039679;28;20836;-85
2022/10/07 03:35:52;;;;;;;5.27;2.50;;;10.30;99.90;;;;;;5039690;28;20565;-84
2022/10/07 03:38:21;;;;;;;4.33;2.30;;;10.30;99.90;;;;;;5040032;28;20470;-83
2022/10/07 03:40:48;;;;;;;4.13;2.00;;;10.30;99.90;;;;;;5041929;28;20460;-83
2022/10/07 03:43:15;;;;;;;9.73;2.33;;;10.30;99.90;;;;;;5019134;28;20464;-84
2022/10/07 03:45:45;;;;;;;7.20;1.93;;;10.20;99.90;;;;;;5018048;28;20495;-85
2022/10/07 03:48:12;;;;;;;4.13;2.03;;;10.20;99.90;;;;;;5040028;28;20538;-84
2022/10/07 03:50:40;;;;;;;6.77;2.50;;;10.20;99.90;;;;;;5041671;28;21046;-82
2022/10/07 03:53:07;;;;;;;4.90;2.30;;;10.20;99.90;;;;;;5040713;28;20456;-83
2022/10/07 03:55:34;;;;;;;5.20;2.10;;;10.20;99.90;;;;;;5039256;28;20465;-83
2022/10/07 03:58:01;;;;;;;6.33;2.60;;;10.20;99.90;;;;;;5037607;28;20546;-85
2022/10/07 04:00:28;;;;;;;6.67;2.17;;;10.20;99.90;;;;;;5036778;28;20478;-84
2022/10/07 04:02:55;;;;;;;7.70;2.40;;;10.20;99.90;;;;;;5037205;28;20473;-85
2022/10/07 04:05:21;;;;;;;3.73;1.83;;;10.10;99.90;;;;;;5035999;28;20499;-84
2022/10/07 04:07:50;;;;;;;4.87;2.30;;;10.10;99.90;;;;;;5038614;28;20456;-85
2022/10/07 04:10:19;;;;;;;9.20;2.47;;;10.10;99.90;;;;;;5057734;28;20460;-86
2022/10/07 04:12:48;;;;;;;4.33;2.10;;;10.20;99.90;;;;;;5045053;28;20457;-84
2022/10/07 04:15:14;;;;;;;3.30;1.83;;;10.20;99.90;;;;;;5032459;28;20838;-85
2022/10/07 04:17:42;;;;;;;5.70;1.87;;;10.20;99.90;;;;;;5037373;28;20456;-84
2022/10/07 04:20:10;;;;;;;4.23;2.30;;;10.10;99.90;;;;;;5037426;28;20452;-86
2022/10/07 04:22:37;;;;;;;5.50;2.40;;;10.10;99.90;;;;;;5038696;28;20459;-86
2022/10/07 04:27:52;;;;;;;7.33;2.20;;;10.10;99.90;;;;;;5038187;28;20496;-85
2022/10/07 04:30:19;;;;;;;5.13;2.10;;;10.10;99.90;;;;;;5037323;28;20458;-85
2022/10/07 04:32:47;;;;;;;6.73;2.03;;;10.10;99.90;;;;;;5039100;28;20477;-85
2022/10/07 04:35:14;;;;;;;7.03;2.50;;;10.10;99.90;;;;;;5037779;28;20486;-84
2022/10/07 04:37:42;;;;;;;4.63;2.20;;;10.10;99.90;;;;;;5038060;28;20451;-84
2022/10/07 04:40:11;;;;;;;5.97;2.00;;;10.10;99.90;;;;;;5036705;28;20463;-86
2022/10/07 04:45:22;;;;;;;5.17;2.17;;;10.10;99.90;;;;;;5036534;28;20539;-86
2022/10/07 04:47:49;;;;;;;8.47;2.17;;;10.10;99.90;;;;;;5036023;28;20460;-85
2022/10/07 04:50:16;;;;;;;4.23;2.07;;;10.10;99.90;;;;;;5036485;28;21002;-85
2022/10/07 04:52:43;;;;;;;6.03;1.97;;;10.10;99.90;;;;;;5038565;28;20456;-86
2022/10/07 04:55:13;;;;;;;4.83;2.13;;;10.10;99.90;;;;;;5037477;28;20470;-85
2022/10/07 04:57:41;;;;;;;7.20;2.10;;;10.10;99.90;;;;;;5038156;28;20545;-86
2022/10/07 05:00:09;;;;;;;5.03;2.53;;;10.10;99.90;;;;;;5038712;28;20463;-86
2022/10/07 05:02:37;;;;;;;3.47;1.40;;;10.00;99.90;;;;;;5037999;28;20543;-87
2022/10/07 05:05:04;;;;;;;9.23;2.60;;;10.00;99.90;;;;;;5036942;28;20486;-85
2022/10/07 05:07:31;;;;;;;5.97;2.10;;;10.10;99.90;;;;;;5037829;28;20454;-85
2022/10/07 05:10:02;;;;;;;6.83;1.87;;;10.00;99.90;;;;;;5036781;28;20487;-86
2022/10/07 05:12:30;;;;;;;5.43;2.20;;;10.00;99.90;;;;;;5036980;28;20449;-86
2022/10/07 05:14:58;;;;;;;6.10;1.77;;;10.00;99.90;;;;;;5036403;28;20477;-86
2022/10/07 05:17:25;;;;;;;5.53;1.77;;;10.00;99.90;;;;;;5038851;28;20476;-86
2022/10/07 05:19:52;;;;;;;4.40;1.60;;;10.10;99.90;;;;;;5039319;28;20459;-86
2022/10/07 05:22:18;;;;;;;14.13;2.20;;;10.00;99.90;;;;;;5039158;28;20466;-86
2022/10/07 05:24:45;;;;;;;4.93;1.70;;;10.10;99.90;;;;;;5040542;28;20494;-86
2022/10/07 05:27:13;;;;;;;5.20;1.77;;;10.10;99.90;;;;;;5037046;28;20454;-86
2022/10/07 05:29:44;;;;;;;5.00;2.10;;;10.10;99.90;;;;;;5037815;28;20461;-86
2022/10/07 05:32:11;;;;;;;12.50;1.87;;;10.10;99.90;;;;;;5037860;28;20483;-86
2022/10/07 05:34:37;;;;;;;4.77;2.30;;;10.10;99.90;;;;;;5054726;28;20464;-85
2022/10/07 05:37:04;;;;;;;3.77;2.30;;;10.00;99.90;;;;;;5054939;28;20477;-85
2022/10/07 05:39:31;;;;;;;4.60;2.00;;;10.10;99.90;;;;;;5038443;28;20485;-85
2022/10/07 05:41:58;;;;;;;3.83;1.73;;;10.00;99.90;;;;;;5015045;28;20907;-85
2022/10/07 05:44:25;;;;;;;4.70;1.80;;;10.00;99.90;;;;;;5025563;28;20466;-85
2022/10/07 05:46:53;;;;;;;4.37;1.53;;;10.00;99.90;;;;;;5034384;28;20461;-85
2022/10/07 05:49:20;;;;;;;3.93;1.40;;;10.10;99.90;;;;;;5034289;28;20459;-85
2022/10/07 05:51:47;;;;;;;7.90;2.00;;;10.00;99.90;;;;;;5037931;28;20846;-84
2022/10/07 05:54:14;;;;;;;5.60;2.30;;;9.90;99.90;;;;;;5037866;28;20950;-84
2022/10/07 05:56:41;;;;;;;9.03;1.80;;;9.90;99.90;;;;;;5038329;28;20485;-83
2022/10/07 05:59:09;;;;;;;4.77;1.83;;;9.90;99.90;;;;;;5037865;28;20526;-84
2022/10/07 06:01:36;;;;;;;4.50;2.10;;;9.90;99.90;;;;;;5038480;28;20460;-85
2022/10/07 06:04:06;;;;;;;4.00;1.83;;;9.80;99.90;;;;;;5038274;28;20450;-84
2022/10/07 06:06:35;;;;;;;6.87;1.80;;;9.90;99.90;;;;;;5038314;28;20494;-84
2022/10/07 06:14:23;;;;;;;6.40;2.27;;;9.90;99.90;;;;;;4994498;28;20450;-86
2022/10/07 06:16:50;;;;;;;2.80;1.50;;;9.90;99.90;;;;;;5038271;28;20450;-85
2022/10/07 06:19:21;;;;;;;4.47;2.03;;;9.90;99.90;;;;;;5038299;28;20462;-84
2022/10/07 06:21:48;;;;;;;4.77;2.10;;;10.00;99.90;;;;;;5039133;28;20579;-84
2022/10/07 06:24:15;;;;;;;3.13;1.80;;;10.00;99.90;;;;;;5038362;28;20457;-84
2022/10/07 06:26:42;;;;;;;7.50;2.23;;;10.00;99.90;;;;;;5037573;28;20494;-83
2022/10/07 06:29:09;;;;;;;6.03;2.30;;;10.00;99.90;;;;;;5037653;28;20455;-84
2022/10/07 06:31:36;;;;;;;6.50;2.10;;;10.00;99.90;;;;;;5036715;28;20542;-84
2022/10/07 06:34:03;;;;;;;9.60;2.90;;;10.00;99.90;;;;;;5037711;28;20946;-82
2022/10/07 06:36:31;;;;;;;6.40;1.80;;;10.10;99.90;;;;;;5038389;28;20503;-84
2022/10/07 06:38:58;;;;;;;7.80;1.80;;;10.20;99.90;;;;;;5038200;28;20454;-84
2022/10/07 06:41:25;;;;;;;5.83;2.17;;;10.20;99.90;;;;;;5037972;28;20454;-84
2022/10/07 06:43:55;;;;;;;7.63;1.87;;;10.20;99.90;;;;;;5039529;28;21047;-84
2022/10/07 06:46:22;;;;;;;5.17;2.20;;;10.30;99.90;;;;;;5036544;28;20868;-84
2022/10/07 06:48:49;;;;;;;6.50;1.87;;;10.40;99.90;;;;;;5038363;28;20474;-84
2022/10/07 06:51:17;;;;;;;8.60;2.53;;;10.40;99.90;;;;;;5037952;28;20455;-84
2022/10/07 06:53:46;;;;;;;8.40;2.73;;;10.40;99.90;;;;;;5038447;28;20465;-84
2022/10/07 06:56:14;;;;;;;7.87;2.13;;;10.50;99.90;;;;;;5037833;28;20467;-84
2022/10/07 06:58:42;;;;;;;12.57;2.50;;;10.40;99.90;;;;;;5039321;28;21175;-84
2022/10/07 07:01:09;;;;;;;6.50;2.30;;;10.60;99.90;;;;;;5039563;28;20453;-84
2022/10/07 07:03:35;;;;;;;7.40;1.70;;;10.70;99.90;;;;;;5042299;28;20863;-85
2022/10/07 07:06:02;;;;;;;9.37;2.30;;;10.70;99.90;;;;;;5041075;28;20494;-84
2022/10/07 07:08:30;;;;;;;6.13;1.60;;;10.70;99.90;;;;;;5041072;28;20481;-84
2022/10/07 07:11:02;;;;;;;5.63;2.10;;;10.70;99.90;;;;;;5038919;28;20460;-84
2022/10/07 07:13:29;;;;;;;7.03;2.63;;;10.90;99.90;;;;;;5038553;28;20485;-85
2022/10/07 07:15:57;;;;;;;9.10;2.53;;;10.90;99.90;;;;;;5039480;28;20497;-85
2022/10/07 07:18:24;;;;;;;7.73;2.20;;;11.10;99.90;;;;;;5036948;28;20469;-84
2022/10/07 07:20:51;;;;;;;9.07;4.00;;;11.20;99.90;;;;;;5040405;28;20498;-84
2022/10/07 07:23:18;;;;;;;9.90;2.70;;;11.20;99.90;;;;;;5039193;28;20456;-85
2022/10/07 07:25:45;;;;;;;12.33;2.50;;;11.30;99.90;;;;;;5041807;28;20851;-86
2022/10/07 07:28:15;;;;;;;7.20;2.00;;;11.40;99.90;;;;;;5039083;28;20456;-85
2022/10/07 07:30:42;;;;;;;6.60;2.20;;;11.50;99.90;;;;;;5040886;28;20530;-85
2022/10/07 07:33:09;;;;;;;9.53;1.70;;;11.50;99.90;;;;;;5036157;28;20448;-87
2022/10/07 07:35:40;;;;;;;10.30;2.73;;;11.60;99.90;;;;;;5027520;28;20483;-86
2022/10/07 07:38:07;;;;;;;8.60;2.07;;;11.70;99.90;;;;;;5039609;28;20559;-83
2022/10/07 07:40:36;;;;;;;10.27;2.17;;;11.70;99.90;;;;;;5041856;28;20552;-84
2022/10/07 07:43:03;;;;;;;5.80;2.43;;;11.80;99.90;;;;;;5042345;28;20453;-84
2022/10/07 07:45:32;;;;;;;8.47;1.87;;;11.90;99.90;;;;;;5041137;28;20571;-82
2022/10/07 07:47:59;;;;;;;8.03;1.93;;;12.00;99.90;;;;;;5041763;28;20449;-83
2022/10/07 07:50:26;;;;;;;7.20;1.77;;;12.10;99.90;;;;;;5040568;28;20460;-83
2022/10/07 07:52:53;;;;;;;8.03;2.10;;;12.20;99.90;;;;;;5040869;28;20473;-83
2022/10/07 07:55:21;;;;;;;14.20;2.20;;;12.30;99.90;;;;;;5041161;28;20555;-83
2022/10/07 07:57:47;;;;;;;17.40;2.67;;;12.30;99.90;;;;;;5038991;28;20457;-83
2022/10/07 08:00:15;;;;;;;6.83;1.80;;;12.40;99.90;;;;;;5038482;28;20459;-85
2022/10/07 08:02:43;;;;;;;8.40;2.20;;;12.40;99.90;;;;;;5041428;28;20469;-84
2022/10/07 08:05:10;;;;;;;5.97;1.73;;;12.50;99.90;;;;;;5040533;28;20492;-84
2022/10/07 08:07:40;;;;;;;9.23;3.10;;;12.50;99.90;;;;;;5038262;28;20460;-84
2022/10/07 08:10:10;;;;;;;8.40;2.10;;;12.60;99.90;;;;;;5038660;28;21037;-84
2022/10/07 08:12:37;;;;;;;4.37;1.70;;;12.60;99.90;;;;;;5039892;28;20523;-85
2022/10/07 08:15:04;;;;;;;4.83;1.70;;;12.60;99.90;;;;;;5040635;28;20502;-83
2022/10/07 08:17:31;;;;;;;7.90;2.03;;;12.70;99.90;;;;;;5039503;28;20457;-85
2022/10/07 08:20:00;;;;;;;5.13;1.27;;;12.70;99.90;;;;;;5039836;28;20918;-84
2022/10/07 08:22:27;;;;;;;13.33;2.60;;;12.80;99.90;;;;;;5038961;28;20470;-84
2022/10/07 08:24:58;;;;;;;9.40;2.30;;;12.90;99.90;;;;;;5038499;28;20541;-85
2022/10/07 08:27:27;;;;;;;6.00;2.07;;;13.00;99.90;;;;;;5040391;28;20487;-86
2022/10/07 08:29:54;;;;;;;8.43;2.20;;;13.10;99.90;;;;;;5040167;28;20457;-86
2022/10/07 08:32:21;;;;;;;5.80;1.97;;;13.10;99.90;;;;;;5043706;28;20544;-86
2022/10/07 08:34:47;;;;;;;8.20;2.03;;;13.20;99.90;;;;;;5044855;28;20559;-87
2022/10/07 08:37:15;;;;;;;7.83;2.50;;;13.20;99.90;;;;;;5043959;28;20459;-85
2022/10/07 08:39:42;;;;;;;13.67;2.40;;;13.30;99.90;;;;;;5042535;28;20551;-86
2022/10/07 08:42:14;;;;;;;8.50;2.13;;;13.40;99.90;;;;;;5043954;28;20449;-86
2022/10/07 08:44:44;;;;;;;6.20;1.80;;;13.40;99.90;;;;;;5041742;28;20477;-86
2022/10/07 08:47:20;;;;;;;7.23;2.07;;;13.60;99.90;;;;;;5037020;28;20483;-85
2022/10/07 08:49:56;;;;;;;6.70;1.90;;;13.60;99.90;;;;;;5036183;28;20492;-85
2022/10/07 08:52:34;;;;;;;10.63;2.30;;;13.70;99.90;;;;;;5036780;28;21039;-85
2022/10/07 08:55:01;;;;;;;9.50;2.27;;;13.90;99.90;;;;;;5037240;28;20478;-86
2022/10/07 08:58:04;;;;;;;7.67;1.90;;;14.00;99.90;;;;;;5039740;28;20457;-86
2022/10/07 09:00:38;;;;;;;6.90;2.03;;;14.10;99.90;;;;;;5039646;28;20452;-86
2022/10/07 09:03:14;;;;;;;5.93;2.23;;;14.20;99.90;;;;;;5039665;28;20472;-87
2022/10/07 09:05:44;;;;;;;6.60;2.67;;;14.30;99.90;;;;;;5040840;28;20583;-86
2022/10/07 09:08:19;;;;;;;8.43;2.40;;;14.30;99.90;;;;;;5040891;28;20453;-85
2022/10/07 09:10:49;;;;;;;7.90;2.10;;;14.30;99.90;;;;;;5047809;28;20478;-85
2022/10/07 09:13:20;;;;;;;4.87;1.60;;;14.50;99.90;;;;;;5040233;28;20464;-85
2022/10/07 09:15:53;;;;;;;7.13;1.70;;;14.60;99.90;;;;;;5038951;28;20480;-85
2022/10/07 09:18:24;;;;;;;10.57;1.90;;;14.70;99.90;;;;;;5035728;28;20464;-85
2022/10/07 09:20:53;;;;;;;6.63;1.70;;;14.70;99.90;;;;;;5034512;28;20464;-84
2022/10/07 09:23:25;;;;;;;8.33;2.13;;;14.80;99.90;;;;;;5036351;28;20452;-85
2022/10/07 09:25:52;;;;;;;4.93;1.80;;;14.80;99.90;;;;;;5036338;28;20501;-85
2022/10/07 09:28:23;;;;;;;8.33;2.20;;;15.00;99.90;;;;;;5037485;28;20459;-84
2022/10/07 09:30:50;;;;;;;9.70;2.13;;;15.10;99.90;;;;;;5036029;28;20470;-86
2022/10/07 09:33:21;;;;;;;7.63;2.43;;;15.20;99.90;;;;;;5035841;28;20540;-85
2022/10/07 09:35:53;;;;;;;6.20;1.50;;;15.30;99.90;;;;;;5036419;28;20563;-85
2022/10/07 09:38:33;;;;;;;10.57;2.00;;;15.50;99.90;;;;;;5035267;28;20457;-86
2022/10/07 09:41:18;;;;;;;10.03;2.37;;;15.60;99.90;;;;;;5034872;28;20458;-86
2022/10/07 09:44:04;;;;;;;10.00;2.50;;;15.70;99.90;;;;;;5033156;28;20555;-86
2022/10/07 09:46:41;;;;;;;13.47;2.07;;;16.00;99.90;;;;;;5033933;28;20983;-85
2022/10/07 09:49:25;;;;;;;7.00;2.07;;;16.00;99.90;;;;;;5032569;28;20532;-87
2022/10/07 09:51:59;;;;;;;4.57;1.50;;;16.20;99.90;;;;;;5034994;28;20457;-87
2022/10/07 09:54:28;;;;;;;9.03;2.53;;;16.10;99.90;;;;;;5034683;28;20467;-84
2022/10/07 09:56:56;;;;;;;10.87;1.80;;;16.20;99.90;;;;;;5016304;28;20455;-85
2022/10/07 09:59:25;;;;;;;9.87;1.60;;;16.50;99.90;;;;;;5016168;28;20965;-83
2022/10/07 10:01:54;;;;;;;5.60;2.10;;;16.70;99.90;;;;;;5038421;28;20458;-86
2022/10/07 10:04:28;;;;;;;9.90;2.77;;;17.00;99.90;;;;;;5040091;28;20457;-86
2022/10/07 10:06:57;;;;;;;7.03;2.23;;;17.20;99.90;;;;;;5037296;28;20483;-87
2022/10/07 10:09:25;;;;;;;9.23;2.13;;;17.70;99.90;;;;;;5037305;28;20456;-86
2022/10/07 10:12:06;;;;;;;6.20;1.80;;;18.10;99.90;;;;;;5039205;28;20812;-86
2022/10/07 10:14:43;;;;;;;8.10;1.83;;;18.20;99.90;;;;;;5038309;28;20455;-86
2022/10/07 10:17:26;;;;;;;6.77;1.93;;;18.60;99.90;;;;;;5034628;28;20483;-86
2022/10/07 10:19:54;;;;;;;7.30;1.70;;;18.70;99.90;;;;;;5033764;28;20458;-85
2022/10/07 10:22:26;;;;;;;6.03;1.60;;;19.00;99.90;;;;;;5035827;28;20507;-87
2022/10/07 10:27:49;;;;;;;9.60;2.30;;;19.20;99.90;;;;;;5033438;28;20552;-86
2022/10/07 10:30:20;;;;;;;8.20;2.07;;;19.70;99.90;;;;;;5035350;28;20457;-84
2022/10/07 10:33:06;;;;;;;7.60;2.10;;;20.10;99.90;;;;;;5035632;28;20460;-86
2022/10/07 10:35:40;;;;;;;8.57;2.47;;;20.30;99.90;;;;;;5035019;28;20466;-86
2022/10/07 10:38:25;;;;;;;8.70;2.20;;;20.40;99.90;;;;;;5039143;28;20447;-84
2022/10/07 10:40:59;;;;;;;8.60;2.27;;;20.20;99.90;;;;;;5038054;28;20463;-83
2022/10/07 10:43:35;;;;;;;11.33;1.97;;;20.20;99.90;;;;;;5038805;28;20456;-86
2022/10/07 10:46:14;;;;;;;7.97;2.00;;;20.40;99.90;;;;;;5018899;28;21032;-84
2022/10/07 10:48:45;;;;;;;6.13;1.90;;;20.70;99.90;;;;;;5020852;28;20456;-83
2022/10/07 10:51:30;;;;;;;9.23;2.27;;;20.60;99.90;;;;;;5039329;28;21114;-84
2022/10/07 10:54:11;;;;;;;6.80;1.93;;;20.60;99.90;;;;;;5039592;28;20975;-84
2022/10/07 10:56:44;;;;;;;5.87;1.60;;;20.70;99.90;;;;;;5041830;28;20480;-84
2022/10/07 10:59:38;;;;;;;6.57;1.90;;;20.90;99.90;;;;;;5039435;28;20599;-83
2022/10/07 11:02:25;;;;;;;7.33;2.10;;;21.30;99.90;;;;;;5042171;28;20459;-84
2022/10/07 11:04:56;;;;;;;7.83;2.20;;;20.90;99.90;;;;;;5039981;28;20932;-84
2022/10/07 11:07:28;;;;;;;6.93;1.80;;;21.10;99.90;;;;;;5036548;28;20985;-84
2022/10/07 11:09:59;;;;;;;8.33;2.17;;;21.40;99.90;;;;;;5019551;28;20449;-85
2022/10/07 11:12:30;;;;;;;6.90;2.10;;;21.40;99.90;;;;;;5025503;28;20463;-84
2022/10/07 11:15:04;;;;;;;8.63;2.33;;;21.50;99.90;;;;;;5037574;28;20555;-84
2022/10/07 11:17:36;;;;;;;7.20;2.47;;;21.60;99.90;;;;;;5037833;28;20445;-84
2022/10/07 11:20:16;;;;;;;7.30;1.80;;;22.00;99.90;;;;;;5038446;28;20862;-84
2022/10/07 11:22:51;;;;;;;6.90;2.10;;;22.20;99.90;;;;;;5043567;28;20954;-84
2022/10/07 11:25:27;;;;;;;9.80;2.53;;;22.00;99.90;;;;;;5039465;28;20483;-85
2022/10/07 11:27:59;;;;;;;7.80;1.63;;;22.20;99.90;;;;;;5039153;28;20866;-83
2022/10/07 11:30:35;;;;;;;7.70;2.13;;;22.50;99.90;;;;;;5037749;28;20961;-86
2022/10/07 11:33:07;;;;;;;8.50;2.10;;;22.60;99.90;;;;;;5038837;28;20994;-86
2022/10/07 11:35:36;;;;;;;6.80;1.70;;;22.50;99.90;;;;;;5038136;28;21094;-84
2022/10/07 11:38:13;;;;;;;10.30;2.37;;;22.80;99.90;;;;;;5038605;28;20460;-84
2022/10/07 11:40:45;;;;;;;10.60;2.93;;;23.00;99.90;;;;;;5037842;28;20452;-85
2022/10/07 11:43:17;;;;;;;8.00;2.27;;;23.40;99.90;;;;;;5038705;28;20452;-85
2022/10/07 11:45:51;;;;;;;9.87;2.30;;;23.30;99.90;;;;;;5037120;28;20472;-84
2022/10/07 11:48:22;;;;;;;10.37;2.60;;;22.90;99.90;;;;;;5039313;28;20491;-84
2022/10/07 11:50:53;;;;;;;7.00;2.13;;;23.10;99.90;;;;;;5039336;28;20560;-84
2022/10/07 11:53:23;;;;;;;5.97;2.10;;;23.40;99.90;;;;;;5038910;28;20461;-84
2022/10/07 11:55:57;;;;;;;9.87;2.20;;;23.50;99.90;;;;;;5040070;28;20495;-85
2022/10/07 11:58:26;;;;;;;11.27;2.20;;;23.70;99.90;;;;;;5039169;28;20451;-82
2022/10/07 12:01:27;;;;;;;5.63;2.03;;;23.90;99.90;;;;;;5039711;28;20461;-83
2022/10/07 12:04:17;;;;;;;10.07;2.53;;;23.80;99.90;;;;;;5041442;28;20449;-84
2022/10/07 12:07:18;;;;;;;10.23;2.27;;;24.20;99.90;;;;;;5041369;28;20575;-85
2022/10/07 12:09:55;;;;;;;10.10;2.40;;;23.90;99.90;;;;;;5039735;28;20454;-84
2022/10/07 12:12:23;;;;;;;10.53;1.93;;;24.10;99.90;;;;;;5042829;28;20512;-85
2022/10/07 12:15:00;;;;;;;9.10;2.37;;;23.90;99.90;;;;;;5039698;28;20468;-85
2022/10/07 12:17:29;;;;;;;6.40;1.93;;;23.80;99.90;;;;;;5020449;28;20448;-84
2022/10/07 12:20:43;;;;;;;5.00;1.90;;;24.00;99.90;;;;;;5021874;28;20468;-84
2022/10/07 12:23:36;;;;;;;7.77;2.00;;;24.20;99.90;;;;;;4979253;28;20479;-85
2022/10/07 12:26:04;;;;;;;7.87;2.50;;;24.10;99.90;;;;;;5036968;28;20477;-85
2022/10/07 12:28:34;;;;;;;9.47;2.63;;;24.00;99.90;;;;;;5040437;28;20488;-84
2022/10/07 12:31:03;;;;;;;7.43;2.07;;;24.00;99.90;;;;;;5037880;28;20831;-84
2022/10/07 12:33:34;;;;;;;6.00;2.37;;;23.80;99.90;;;;;;5040585;28;20445;-85
2022/10/07 12:36:26;;;;;;;8.20;3.03;;;24.00;99.90;;;;;;5041080;28;20479;-84
2022/10/07 12:39:31;;;;;;;13.07;2.80;;;23.90;99.90;;;;;;5044022;28;20449;-84
2022/10/07 12:42:00;;;;;;;6.20;1.77;;;24.10;99.90;;;;;;5047624;28;20483;-85
2022/10/07 12:44:31;;;;;;;7.90;2.60;;;24.10;99.90;;;;;;5051748;28;20543;-84
2022/10/07 12:47:03;;;;;;;7.43;2.67;;;24.40;99.90;;;;;;5044640;28;20565;-84
2022/10/07 12:49:35;;;;;;;10.90;3.20;;;24.50;99.90;;;;;;5032499;28;20451;-84
2022/10/07 12:52:07;;;;;;;7.60;2.50;;;24.00;99.90;;;;;;5033102;28;20455;-83
2022/10/07 12:54:42;;;;;;;12.17;2.97;;;24.10;99.90;;;;;;5030753;28;20533;-86
2022/10/07 12:57:12;;;;;;;8.50;2.30;;;24.00;99.90;;;;;;5031462;28;20450;-85
2022/10/07 12:59:50;;;;;;;8.00;2.30;;;24.20;99.90;;;;;;5028902;28;20468;-85
2022/10/07 13:02:44;;;;;;;11.50;2.63;;;24.40;99.90;;;;;;5036853;28;20452;-83
2022/10/07 13:05:35;;;;;;;11.33;2.87;;;24.60;99.90;;;;;;5027267;28;20989;-86
2022/10/07 13:08:39;;;;;;;7.70;2.03;;;24.50;99.90;;;;;;5028128;28;20936;-84
2022/10/07 13:11:31;;;;;;;6.03;2.13;;;24.50;99.90;;;;;;4964437;28;20452;-85
2022/10/07 13:14:04;;;;;;;8.00;2.60;;;24.60;99.90;;;;;;5031174;28;20453;-85
2022/10/07 13:16:40;;;;;;;6.40;2.00;;;24.40;99.90;;;;;;5030146;28;20480;-84
2022/10/07 13:19:22;;;;;;;8.10;2.60;;;24.60;99.90;;;;;;5029885;28;20445;-85
2022/10/07 13:21:55;;;;;;;8.73;2.87;;;24.50;99.90;;;;;;5032770;28;20454;-86